sensor_id;sensor_type;location;lat;lon;timestamp;P1;durP1;ratioP1;P2;durP2;ratioP2
58990;SDS011;44781;53.444;14.476;2022-11-23T11:52:20;54.80;;;30.90;;
58990;SDS011;44781;53.444;14.476;2022-11-23T11:55:11;48.50;;;28.50;;
58990;SDS011;44781;53.444;14.476;2022-11-23T11:57:45;48.20;;;29.20;;
58990;SDS011;44781;53.444;14.476;2022-11-23T12:00:17;47.60;;;29.50;;
58990;SDS011;44781;53.444;14.476;2022-11-23T12:10:59;54.40;;;32.10;;
58990;SDS011;44781;53.444;14.476;2022-11-23T12:13:32;56.40;;;32.40;;
58990;SDS011;44781;53.444;14.476;2022-11-23T12:16:05;52.30;;;31.50;;
58990;SDS011;44781;53.444;14.476;2022-11-23T12:18:46;52.70;;;30.70;;
58990;SDS011;44781;53.444;14.476;2022-11-23T12:21:55;48.30;;;29.40;;
58990;SDS011;44781;53.444;14.476;2022-11-23T12:30:22;51.90;;;30.90;;
58990;SDS011;44781;53.444;14.476;2022-11-23T12:36:34;52.00;;;31.60;;
58990;SDS011;44781;53.444;14.476;2022-11-23T12:42:19;48.40;;;30.00;;
58990;SDS011;44781;53.444;14.476;2022-11-23T12:50:53;49.20;;;32.20;;
58990;SDS011;44781;53.444;14.476;2022-11-23T12:54:03;51.50;;;30.10;;
58990;SDS011;44781;53.444;14.476;2022-11-23T13:14:30;48.90;;;30.10;;
58990;SDS011;44781;53.444;14.476;2022-11-23T13:22:35;55.10;;;32.50;;
58990;SDS011;44781;53.444;14.476;2022-11-23T13:25:26;58.00;;;34.40;;
58990;SDS011;44781;53.444;14.476;2022-11-23T13:30:34;50.70;;;30.20;;
58990;SDS011;44781;53.444;14.476;2022-11-23T13:38:24;48.80;;;29.50;;
58990;SDS011;44781;53.444;14.476;2022-11-23T13:40:53;50.10;;;30.30;;
58990;SDS011;44781;53.444;14.476;2022-11-23T13:43:23;53.30;;;31.30;;
58990;SDS011;44781;53.444;14.476;2022-11-23T13:48:56;50.10;;;31.60;;
58990;SDS011;44781;53.444;14.476;2022-11-23T13:51:43;50.10;;;31.00;;
58990;SDS011;44781;53.444;14.476;2022-11-23T13:57:20;50.20;;;30.70;;
58990;SDS011;44781;53.444;14.476;2022-11-23T13:59:47;53.40;;;31.80;;
58990;SDS011;44781;53.444;14.476;2022-11-23T14:02:28;53.20;;;31.10;;
58990;SDS011;44781;53.444;14.476;2022-11-23T14:08:08;62.10;;;35.90;;
58990;SDS011;44781;53.444;14.476;2022-11-23T14:10:40;56.10;;;35.40;;
58990;SDS011;44781;53.444;14.476;2022-11-23T14:13:14;56.80;;;33.10;;
58990;SDS011;44781;53.444;14.476;2022-11-23T14:21:13;58.90;;;34.20;;
58990;SDS011;44781;53.444;14.476;2022-11-23T14:34:49;60.10;;;35.20;;
58990;SDS011;44781;53.444;14.476;2022-11-23T14:37:38;58.50;;;36.00;;
58990;SDS011;44781;53.444;14.476;2022-11-23T14:40:17;65.10;;;36.80;;
58990;SDS011;44781;53.444;14.476;2022-11-23T14:42:53;60.80;;;36.10;;
58990;SDS011;44781;53.444;14.476;2022-11-23T14:45:23;63.10;;;34.60;;
58990;SDS011;44781;53.444;14.476;2022-11-23T14:48:18;59.60;;;35.70;;
58990;SDS011;44781;53.444;14.476;2022-11-23T14:50:53;68.00;;;37.60;;
58990;SDS011;44781;53.444;14.476;2022-11-23T14:53:40;64.70;;;36.50;;
58990;SDS011;44781;53.444;14.476;2022-11-23T14:56:33;62.50;;;35.80;;
58990;SDS011;44781;53.444;14.476;2022-11-23T14:59:23;62.20;;;33.40;;
58990;SDS011;44781;53.444;14.476;2022-11-23T15:11:12;59.50;;;35.60;;
58990;SDS011;44781;53.444;14.476;2022-11-23T15:13:49;60.00;;;34.70;;
58990;SDS011;44781;53.444;14.476;2022-11-23T15:16:24;56.20;;;32.10;;
58990;SDS011;44781;53.444;14.476;2022-11-23T15:18:52;58.40;;;34.30;;
58990;SDS011;44781;53.444;14.476;2022-11-23T15:21:20;64.40;;;34.00;;
58990;SDS011;44781;53.444;14.476;2022-11-23T15:23:53;59.50;;;34.00;;
58990;SDS011;44781;53.444;14.476;2022-11-23T15:26:30;58.50;;;34.20;;
58990;SDS011;44781;53.444;14.476;2022-11-23T15:29:26;60.60;;;33.40;;
58990;SDS011;44781;53.444;14.476;2022-11-23T15:32:02;56.80;;;34.30;;
58990;SDS011;44781;53.444;14.476;2022-11-23T15:34:45;63.70;;;36.40;;
58990;SDS011;44781;53.444;14.476;2022-11-23T15:37:16;60.50;;;37.30;;
58990;SDS011;44781;53.444;14.476;2022-11-23T15:39:44;67.80;;;39.40;;
58990;SDS011;44781;53.444;14.476;2022-11-23T15:42:14;68.80;;;38.90;;
58990;SDS011;44781;53.444;14.476;2022-11-23T15:44:44;61.40;;;34.10;;
58990;SDS011;44781;53.444;14.476;2022-11-23T15:47:17;57.70;;;34.10;;
58990;SDS011;44781;53.444;14.476;2022-11-23T15:50:07;57.30;;;32.60;;
58990;SDS011;44781;53.444;14.476;2022-11-23T15:52:40;54.00;;;31.80;;
58990;SDS011;44781;53.444;14.476;2022-11-23T15:55:11;56.10;;;33.00;;
58990;SDS011;44781;53.444;14.476;2022-11-23T15:57:42;56.00;;;34.40;;
58990;SDS011;44781;53.444;14.476;2022-11-23T16:00:20;61.20;;;34.10;;
58990;SDS011;44781;53.444;14.476;2022-11-23T16:02:50;65.20;;;35.40;;
58990;SDS011;44781;53.444;14.476;2022-11-23T16:05:26;58.20;;;34.80;;
58990;SDS011;44781;53.444;14.476;2022-11-23T16:07:58;55.20;;;33.50;;
58990;SDS011;44781;53.444;14.476;2022-11-23T16:10:31;60.80;;;35.00;;
58990;SDS011;44781;53.444;14.476;2022-11-23T16:13:01;57.80;;;32.90;;
58990;SDS011;44781;53.444;14.476;2022-11-23T16:18:20;57.70;;;35.50;;
58990;SDS011;44781;53.444;14.476;2022-11-23T16:21:42;64.50;;;36.70;;
58990;SDS011;44781;53.444;14.476;2022-11-23T16:24:17;62.00;;;34.80;;
58990;SDS011;44781;53.444;14.476;2022-11-23T16:26:51;63.90;;;35.80;;
58990;SDS011;44781;53.444;14.476;2022-11-23T16:29:20;61.00;;;36.00;;
58990;SDS011;44781;53.444;14.476;2022-11-23T16:31:57;58.30;;;34.30;;
58990;SDS011;44781;53.444;14.476;2022-11-23T16:34:33;62.00;;;35.00;;
58990;SDS011;44781;53.444;14.476;2022-11-23T16:37:04;56.80;;;32.60;;
58990;SDS011;44781;53.444;14.476;2022-11-23T16:39:31;62.30;;;33.20;;
58990;SDS011;44781;53.444;14.476;2022-11-23T16:42:03;54.80;;;33.60;;
58990;SDS011;44781;53.444;14.476;2022-11-23T16:47:49;62.50;;;34.90;;
58990;SDS011;44781;53.444;14.476;2022-11-23T16:50:22;53.80;;;31.90;;
58990;SDS011;44781;53.444;14.476;2022-11-23T16:53:18;59.40;;;32.50;;
58990;SDS011;44781;53.444;14.476;2022-11-23T16:56:39;55.90;;;32.80;;
58990;SDS011;44781;53.444;14.476;2022-11-23T16:59:33;56.60;;;33.60;;
58990;SDS011;44781;53.444;14.476;2022-11-23T17:02:01;55.00;;;32.00;;
58990;SDS011;44781;53.444;14.476;2022-11-23T17:04:37;57.70;;;32.70;;
58990;SDS011;44781;53.444;14.476;2022-11-23T17:07:07;59.10;;;32.40;;
58990;SDS011;44781;53.444;14.476;2022-11-23T17:10:10;58.90;;;34.80;;
58990;SDS011;44781;53.444;14.476;2022-11-23T17:12:51;63.80;;;35.10;;
58990;SDS011;44781;53.444;14.476;2022-11-23T17:15:22;58.20;;;34.80;;
58990;SDS011;44781;53.444;14.476;2022-11-23T17:18:16;61.90;;;34.20;;
58990;SDS011;44781;53.444;14.476;2022-11-23T17:21:05;55.60;;;31.60;;
58990;SDS011;44781;53.444;14.476;2022-11-23T17:23:54;58.80;;;32.90;;
58990;SDS011;44781;53.444;14.476;2022-11-23T17:26:33;58.00;;;35.10;;
58990;SDS011;44781;53.444;14.476;2022-11-23T17:29:09;54.00;;;31.90;;
58990;SDS011;44781;53.444;14.476;2022-11-23T17:31:39;58.40;;;34.30;;
58990;SDS011;44781;53.444;14.476;2022-11-23T17:34:12;58.70;;;32.20;;
58990;SDS011;44781;53.444;14.476;2022-11-23T17:36:41;66.90;;;37.50;;
58990;SDS011;44781;53.444;14.476;2022-11-23T17:39:19;62.40;;;35.20;;
58990;SDS011;44781;53.444;14.476;2022-11-23T17:41:49;61.00;;;35.80;;
58990;SDS011;44781;53.444;14.476;2022-11-23T17:44:17;62.70;;;35.90;;
58990;SDS011;44781;53.444;14.476;2022-11-23T17:46:45;61.80;;;33.40;;
58990;SDS011;44781;53.444;14.476;2022-11-23T17:49:13;58.00;;;31.30;;
58990;SDS011;44781;53.444;14.476;2022-11-23T17:51:49;58.30;;;30.60;;
58990;SDS011;44781;53.444;14.476;2022-11-23T17:54:17;61.30;;;33.70;;
58990;SDS011;44781;53.444;14.476;2022-11-23T17:56:51;58.50;;;33.60;;
58990;SDS011;44781;53.444;14.476;2022-11-23T17:59:19;59.30;;;33.70;;
58990;SDS011;44781;53.444;14.476;2022-11-23T18:01:50;56.50;;;32.20;;
58990;SDS011;44781;53.444;14.476;2022-11-23T18:04:17;63.60;;;36.50;;
58990;SDS011;44781;53.444;14.476;2022-11-23T18:06:45;62.00;;;34.90;;
58990;SDS011;44781;53.444;14.476;2022-11-23T18:09:20;62.30;;;32.40;;
58990;SDS011;44781;53.444;14.476;2022-11-23T18:12:08;58.20;;;32.10;;
58990;SDS011;44781;53.444;14.476;2022-11-23T18:14:40;62.60;;;35.10;;
58990;SDS011;44781;53.444;14.476;2022-11-23T18:17:08;63.20;;;35.50;;
58990;SDS011;44781;53.444;14.476;2022-11-23T18:19:35;64.80;;;36.40;;
58990;SDS011;44781;53.444;14.476;2022-11-23T18:22:04;66.90;;;36.30;;
58990;SDS011;44781;53.444;14.476;2022-11-23T18:24:34;63.30;;;37.50;;
58990;SDS011;44781;53.444;14.476;2022-11-23T18:27:01;64.20;;;35.80;;
58990;SDS011;44781;53.444;14.476;2022-11-23T18:29:29;63.90;;;35.20;;
58990;SDS011;44781;53.444;14.476;2022-11-23T18:32:00;63.80;;;34.50;;
58990;SDS011;44781;53.444;14.476;2022-11-23T18:34:54;72.40;;;36.80;;
58990;SDS011;44781;53.444;14.476;2022-11-23T18:41:52;169.10;;;63.10;;
58990;SDS011;44781;53.444;14.476;2022-11-23T18:44:43;97.30;;;43.50;;
58990;SDS011;44781;53.444;14.476;2022-11-23T18:47:10;76.60;;;37.40;;
58990;SDS011;44781;53.444;14.476;2022-11-23T18:50:09;63.70;;;32.10;;
58990;SDS011;44781;53.444;14.476;2022-11-23T18:52:40;57.70;;;31.90;;
58990;SDS011;44781;53.444;14.476;2022-11-23T18:55:10;58.20;;;29.90;;
58990;SDS011;44781;53.444;14.476;2022-11-23T18:57:37;57.20;;;30.50;;
58990;SDS011;44781;53.444;14.476;2022-11-23T19:00:23;53.40;;;30.30;;
58990;SDS011;44781;53.444;14.476;2022-11-23T19:02:59;54.50;;;31.70;;
58990;SDS011;44781;53.444;14.476;2022-11-23T19:05:31;53.20;;;29.30;;
58990;SDS011;44781;53.444;14.476;2022-11-23T19:08:13;56.10;;;29.00;;
58990;SDS011;44781;53.444;14.476;2022-11-23T19:11:14;48.00;;;26.00;;
58990;SDS011;44781;53.444;14.476;2022-11-23T19:13:46;51.80;;;28.70;;
58990;SDS011;44781;53.444;14.476;2022-11-23T19:16:17;53.20;;;28.00;;
58990;SDS011;44781;53.444;14.476;2022-11-23T19:19:01;55.80;;;28.70;;
58990;SDS011;44781;53.444;14.476;2022-11-23T19:21:32;57.80;;;28.80;;
58990;SDS011;44781;53.444;14.476;2022-11-23T19:24:25;54.10;;;27.10;;
58990;SDS011;44781;53.444;14.476;2022-11-23T19:26:57;53.80;;;28.90;;
58990;SDS011;44781;53.444;14.476;2022-11-23T19:29:28;54.30;;;29.90;;
58990;SDS011;44781;53.444;14.476;2022-11-23T19:32:01;56.70;;;30.60;;
58990;SDS011;44781;53.444;14.476;2022-11-23T19:34:45;53.70;;;29.60;;
58990;SDS011;44781;53.444;14.476;2022-11-23T19:37:13;64.40;;;32.90;;
58990;SDS011;44781;53.444;14.476;2022-11-23T19:39:42;60.50;;;31.90;;
58990;SDS011;44781;53.444;14.476;2022-11-23T19:42:15;62.70;;;33.20;;
58990;SDS011;44781;53.444;14.476;2022-11-23T19:44:43;54.30;;;29.20;;
58990;SDS011;44781;53.444;14.476;2022-11-23T19:47:11;58.80;;;28.80;;
58990;SDS011;44781;53.444;14.476;2022-11-23T19:49:44;54.80;;;28.40;;
58990;SDS011;44781;53.444;14.476;2022-11-23T19:52:15;62.90;;;32.80;;
58990;SDS011;44781;53.444;14.476;2022-11-23T19:54:45;59.20;;;28.40;;
58990;SDS011;44781;53.444;14.476;2022-11-23T19:57:16;60.90;;;30.90;;
58990;SDS011;44781;53.444;14.476;2022-11-23T19:59:43;60.00;;;29.80;;
58990;SDS011;44781;53.444;14.476;2022-11-23T20:02:14;59.70;;;32.10;;
58990;SDS011;44781;53.444;14.476;2022-11-23T20:04:49;66.20;;;34.50;;
58990;SDS011;44781;53.444;14.476;2022-11-23T20:07:30;51.20;;;30.60;;
58990;SDS011;44781;53.444;14.476;2022-11-23T20:09:58;56.30;;;29.90;;
58990;SDS011;44781;53.444;14.476;2022-11-23T20:12:28;58.70;;;30.10;;
58990;SDS011;44781;53.444;14.476;2022-11-23T20:15:32;56.50;;;28.00;;
58990;SDS011;44781;53.444;14.476;2022-11-23T20:18:15;47.80;;;26.10;;
58990;SDS011;44781;53.444;14.476;2022-11-23T20:20:58;51.80;;;26.40;;
58990;SDS011;44781;53.444;14.476;2022-11-23T20:23:36;52.00;;;27.80;;
58990;SDS011;44781;53.444;14.476;2022-11-23T20:26:11;52.80;;;28.10;;
58990;SDS011;44781;53.444;14.476;2022-11-23T20:28:53;53.70;;;29.20;;
58990;SDS011;44781;53.444;14.476;2022-11-23T20:31:23;49.10;;;26.70;;
58990;SDS011;44781;53.444;14.476;2022-11-23T20:33:58;50.50;;;28.60;;
58990;SDS011;44781;53.444;14.476;2022-11-23T20:36:27;50.00;;;26.80;;
58990;SDS011;44781;53.444;14.476;2022-11-23T20:39:03;45.90;;;26.00;;
58990;SDS011;44781;53.444;14.476;2022-11-23T20:41:45;50.60;;;27.60;;
58990;SDS011;44781;53.444;14.476;2022-11-23T20:44:14;46.50;;;25.70;;
58990;SDS011;44781;53.444;14.476;2022-11-23T20:46:48;48.40;;;27.30;;
58990;SDS011;44781;53.444;14.476;2022-11-23T20:49:17;46.00;;;25.70;;
58990;SDS011;44781;53.444;14.476;2022-11-23T20:51:48;50.80;;;25.50;;
58990;SDS011;44781;53.444;14.476;2022-11-23T20:54:24;48.60;;;26.20;;
58990;SDS011;44781;53.444;14.476;2022-11-23T20:56:52;47.60;;;25.20;;
58990;SDS011;44781;53.444;14.476;2022-11-23T20:59:31;48.90;;;25.50;;
58990;SDS011;44781;53.444;14.476;2022-11-23T21:02:00;47.50;;;27.00;;
58990;SDS011;44781;53.444;14.476;2022-11-23T21:04:31;45.40;;;26.30;;
58990;SDS011;44781;53.444;14.476;2022-11-23T21:06:59;51.10;;;26.90;;
58990;SDS011;44781;53.444;14.476;2022-11-23T21:09:27;49.00;;;25.90;;
58990;SDS011;44781;53.444;14.476;2022-11-23T21:12:05;50.10;;;27.00;;
58990;SDS011;44781;53.444;14.476;2022-11-23T21:15:02;49.40;;;25.50;;
58990;SDS011;44781;53.444;14.476;2022-11-23T21:17:30;46.90;;;27.00;;
58990;SDS011;44781;53.444;14.476;2022-11-23T21:20:00;48.80;;;25.00;;
58990;SDS011;44781;53.444;14.476;2022-11-23T21:22:29;49.20;;;25.00;;
58990;SDS011;44781;53.444;14.476;2022-11-23T21:24:56;50.50;;;25.40;;
58990;SDS011;44781;53.444;14.476;2022-11-23T21:27:24;50.70;;;27.30;;
58990;SDS011;44781;53.444;14.476;2022-11-23T21:29:57;47.70;;;26.80;;
58990;SDS011;44781;53.444;14.476;2022-11-23T21:32:28;48.00;;;24.70;;
58990;SDS011;44781;53.444;14.476;2022-11-23T21:34:56;51.50;;;25.70;;
58990;SDS011;44781;53.444;14.476;2022-11-23T21:37:26;52.80;;;25.50;;
58990;SDS011;44781;53.444;14.476;2022-11-23T21:39:54;49.10;;;26.10;;
58990;SDS011;44781;53.444;14.476;2022-11-23T21:42:25;48.20;;;25.40;;
58990;SDS011;44781;53.444;14.476;2022-11-23T21:44:56;49.40;;;25.90;;
58990;SDS011;44781;53.444;14.476;2022-11-23T21:47:27;50.90;;;24.10;;
58990;SDS011;44781;53.444;14.476;2022-11-23T21:49:55;52.50;;;26.70;;
58990;SDS011;44781;53.444;14.476;2022-11-23T21:52:28;52.80;;;27.60;;
58990;SDS011;44781;53.444;14.476;2022-11-23T21:55:01;49.70;;;27.20;;
58990;SDS011;44781;53.444;14.476;2022-11-23T21:57:30;52.80;;;27.80;;
58990;SDS011;44781;53.444;14.476;2022-11-23T21:59:57;54.90;;;27.60;;
58990;SDS011;44781;53.444;14.476;2022-11-23T22:02:26;48.80;;;26.30;;
58990;SDS011;44781;53.444;14.476;2022-11-23T22:04:56;52.40;;;27.40;;
58990;SDS011;44781;53.444;14.476;2022-11-23T22:07:24;54.20;;;27.70;;
58990;SDS011;44781;53.444;14.476;2022-11-23T22:09:51;52.80;;;27.60;;
58990;SDS011;44781;53.444;14.476;2022-11-23T22:12:19;53.70;;;27.80;;
58990;SDS011;44781;53.444;14.476;2022-11-23T22:14:46;56.30;;;28.40;;
58990;SDS011;44781;53.444;14.476;2022-11-23T22:17:14;51.90;;;27.10;;
58990;SDS011;44781;53.444;14.476;2022-11-23T22:19:41;53.40;;;26.30;;
58990;SDS011;44781;53.444;14.476;2022-11-23T22:22:12;56.80;;;26.90;;
58990;SDS011;44781;53.444;14.476;2022-11-23T22:24:39;47.20;;;24.80;;
58990;SDS011;44781;53.444;14.476;2022-11-23T22:27:10;49.70;;;25.80;;
58990;SDS011;44781;53.444;14.476;2022-11-23T22:29:37;54.60;;;26.60;;
58990;SDS011;44781;53.444;14.476;2022-11-23T22:32:05;52.80;;;26.60;;
58990;SDS011;44781;53.444;14.476;2022-11-23T22:34:32;54.40;;;28.40;;
58990;SDS011;44781;53.444;14.476;2022-11-23T22:37:01;55.50;;;30.10;;
58990;SDS011;44781;53.444;14.476;2022-11-23T22:39:39;57.20;;;30.20;;
58990;SDS011;44781;53.444;14.476;2022-11-23T22:42:07;58.80;;;31.60;;
58990;SDS011;44781;53.444;14.476;2022-11-23T22:44:35;64.40;;;35.50;;
58990;SDS011;44781;53.444;14.476;2022-11-23T22:47:05;61.70;;;33.50;;
58990;SDS011;44781;53.444;14.476;2022-11-23T22:49:32;59.40;;;32.70;;
58990;SDS011;44781;53.444;14.476;2022-11-23T22:52:00;59.30;;;33.20;;
58990;SDS011;44781;53.444;14.476;2022-11-23T22:54:29;59.50;;;33.40;;
58990;SDS011;44781;53.444;14.476;2022-11-23T22:56:59;68.60;;;37.20;;
58990;SDS011;44781;53.444;14.476;2022-11-23T22:59:26;69.20;;;39.40;;
58990;SDS011;44781;53.444;14.476;2022-11-23T23:01:54;73.20;;;38.60;;
58990;SDS011;44781;53.444;14.476;2022-11-23T23:04:24;69.00;;;36.10;;
58990;SDS011;44781;53.444;14.476;2022-11-23T23:06:52;56.40;;;29.40;;
58990;SDS011;44781;53.444;14.476;2022-11-23T23:09:26;63.20;;;32.20;;
58990;SDS011;44781;53.444;14.476;2022-11-23T23:12:12;64.50;;;32.70;;
58990;SDS011;44781;53.444;14.476;2022-11-23T23:14:39;56.90;;;30.60;;
58990;SDS011;44781;53.444;14.476;2022-11-23T23:17:12;59.00;;;31.10;;
58990;SDS011;44781;53.444;14.476;2022-11-23T23:19:54;57.00;;;32.00;;
58990;SDS011;44781;53.444;14.476;2022-11-23T23:22:24;63.80;;;31.00;;
58990;SDS011;44781;53.444;14.476;2022-11-23T23:24:51;56.40;;;29.70;;
58990;SDS011;44781;53.444;14.476;2022-11-23T23:27:22;56.90;;;30.10;;
58990;SDS011;44781;53.444;14.476;2022-11-23T23:29:50;58.20;;;30.00;;
58990;SDS011;44781;53.444;14.476;2022-11-23T23:32:17;57.10;;;29.70;;
58990;SDS011;44781;53.444;14.476;2022-11-23T23:34:45;54.00;;;28.30;;
58990;SDS011;44781;53.444;14.476;2022-11-23T23:37:12;57.10;;;28.40;;
58990;SDS011;44781;53.444;14.476;2022-11-23T23:39:40;60.50;;;30.00;;
58990;SDS011;44781;53.444;14.476;2022-11-23T23:42:07;61.20;;;29.50;;
58990;SDS011;44781;53.444;14.476;2022-11-23T23:44:34;58.80;;;28.80;;
58990;SDS011;44781;53.444;14.476;2022-11-23T23:47:01;56.80;;;28.80;;
58990;SDS011;44781;53.444;14.476;2022-11-23T23:49:29;54.20;;;26.60;;
58990;SDS011;44781;53.444;14.476;2022-11-23T23:52:00;49.30;;;25.50;;
58990;SDS011;44781;53.444;14.476;2022-11-23T23:54:30;51.60;;;26.30;;
58990;SDS011;44781;53.444;14.476;2022-11-23T23:56:57;51.40;;;26.60;;
58990;SDS011;44781;53.444;14.476;2022-11-23T23:59:24;52.10;;;26.60;;
